createdAt,value
2018-01-26T00:00:45.879Z,8.80
2018-01-26T00:03:12.592Z,9.00
2018-01-26T00:05:39.290Z,9.50
2018-01-26T00:08:06.017Z,8.47
2018-01-26T00:10:32.774Z,9.07
2018-01-26T00:12:59.504Z,8.97
2018-01-26T00:15:26.211Z,8.63
2018-01-26T00:17:52.911Z,8.10
2018-01-26T00:20:19.632Z,8.40
2018-01-26T00:22:46.345Z,6.90
2018-01-26T00:25:13.089Z,8.10
2018-01-26T00:27:39.819Z,8.23
2018-01-26T00:30:06.573Z,8.53
2018-01-26T00:32:33.263Z,9.80
2018-01-26T00:35:00.047Z,9.23
2018-01-26T00:37:26.791Z,10.30
2018-01-26T00:39:53.625Z,9.30
2018-01-26T00:42:20.340Z,10.00
2018-01-26T00:44:47.029Z,9.93
2018-01-26T00:47:13.782Z,9.30
2018-01-26T00:49:40.482Z,8.60
2018-01-26T00:52:07.205Z,9.50
2018-01-26T00:54:34.117Z,9.00
2018-01-26T00:57:01.003Z,8.60
2018-01-26T00:59:27.694Z,8.03
2018-01-26T01:01:54.450Z,7.53
2018-01-26T01:04:21.154Z,7.33
2018-01-26T01:06:47.875Z,6.60
2018-01-26T01:09:14.548Z,6.40
2018-01-26T01:11:41.265Z,6.07
2018-01-26T01:14:07.974Z,6.30
2018-01-26T01:16:34.661Z,6.33
2018-01-26T01:19:01.352Z,5.57
2018-01-26T01:21:28.023Z,5.30
2018-01-26T01:23:54.747Z,6.13
2018-01-26T01:26:21.438Z,6.13
2018-01-26T01:28:48.171Z,5.73
2018-01-26T01:31:14.910Z,5.20
2018-01-26T01:33:41.676Z,5.87
2018-01-26T01:36:08.389Z,5.70
2018-01-26T01:38:35.090Z,6.20
2018-01-26T01:41:01.773Z,5.57
2018-01-26T01:43:28.492Z,6.57
2018-01-26T01:45:55.308Z,5.90
2018-01-26T01:48:22.074Z,5.53
2018-01-26T01:50:48.755Z,5.67
2018-01-26T01:53:15.507Z,5.37
2018-01-26T01:55:42.242Z,5.80
2018-01-26T01:58:08.958Z,6.10
2018-01-26T02:00:35.645Z,5.83
2018-01-26T02:03:02.638Z,5.73
2018-01-26T02:05:29.329Z,6.13
2018-01-26T02:07:56.029Z,5.63
2018-01-26T02:10:22.888Z,6.43
2018-01-26T02:12:49.559Z,5.47
2018-01-26T02:15:16.238Z,5.27
2018-01-26T02:17:42.964Z,5.20
2018-01-26T02:20:09.708Z,4.70
2018-01-26T02:22:36.462Z,5.13
2018-01-26T02:25:03.168Z,5.50
2018-01-26T02:27:29.864Z,5.00
2018-01-26T02:29:56.597Z,5.37
2018-01-26T02:32:23.368Z,5.83
2018-01-26T02:34:50.141Z,5.30
2018-01-26T02:37:16.877Z,5.40
2018-01-26T02:39:43.569Z,5.40
2018-01-26T02:42:10.314Z,5.87
2018-01-26T02:44:37.831Z,5.90
2018-01-26T02:47:04.564Z,6.50
2018-01-26T02:49:31.268Z,5.70
2018-01-26T02:51:57.986Z,6.80
2018-01-26T02:54:24.752Z,6.27
2018-01-26T02:56:51.435Z,6.53
2018-01-26T02:59:18.153Z,6.60
2018-01-26T03:01:44.844Z,7.40
2018-01-26T03:04:11.619Z,7.03
2018-01-26T03:06:38.302Z,6.77
2018-01-26T03:09:04.984Z,6.90
2018-01-26T03:11:31.758Z,7.33
2018-01-26T03:13:58.423Z,7.33
2018-01-26T03:16:25.135Z,7.23
2018-01-26T03:18:51.930Z,7.50
2018-01-26T03:21:18.651Z,7.37
2018-01-26T03:23:45.383Z,6.87
2018-01-26T03:26:12.130Z,6.27
2018-01-26T03:28:38.913Z,6.40
2018-01-26T03:31:09.294Z,7.03
2018-01-26T03:33:36.762Z,7.77
2018-01-26T03:36:03.481Z,7.10
2018-01-26T03:38:30.227Z,5.90
2018-01-26T03:40:56.958Z,6.10
2018-01-26T03:43:23.705Z,6.80
2018-01-26T03:45:50.413Z,6.23
2018-01-26T03:48:17.102Z,6.03
2018-01-26T03:50:44.046Z,5.53
2018-01-26T03:53:13.474Z,6.30
2018-01-26T03:55:40.172Z,5.27
2018-01-26T03:58:06.864Z,4.90
2018-01-26T04:00:33.574Z,5.07
2018-01-26T04:03:00.245Z,5.13
2018-01-26T04:05:26.971Z,4.83
2018-01-26T04:07:53.691Z,4.97
2018-01-26T04:10:20.425Z,4.77
2018-01-26T04:12:47.134Z,4.63
2018-01-26T04:15:13.876Z,4.93
2018-01-26T04:17:40.542Z,4.27
2018-01-26T04:20:07.249Z,4.50
2018-01-26T04:22:33.980Z,4.40
2018-01-26T04:25:00.706Z,4.00
2018-01-26T04:27:27.414Z,4.20
2018-01-26T04:29:54.606Z,3.47
2018-01-26T04:32:21.333Z,3.63
2018-01-26T04:34:48.081Z,4.30
2018-01-26T04:37:14.748Z,4.30
2018-01-26T04:39:41.474Z,3.60
2018-01-26T04:42:08.394Z,4.20
2018-01-26T04:44:35.154Z,4.07
2018-01-26T04:47:01.842Z,3.43
2018-01-26T04:49:28.743Z,3.77
2018-01-26T04:51:55.433Z,3.67
2018-01-26T04:54:22.107Z,3.47
2018-01-26T04:56:48.804Z,4.10
2018-01-26T04:59:15.475Z,3.23
2018-01-26T05:01:42.186Z,3.20
2018-01-26T05:04:08.878Z,3.50
2018-01-26T05:06:35.604Z,3.73
2018-01-26T05:09:02.323Z,3.60
2018-01-26T05:11:29.005Z,3.63
2018-01-26T05:13:55.703Z,3.80
2018-01-26T05:16:22.421Z,3.90
2018-01-26T05:18:49.129Z,3.53
2018-01-26T05:21:15.888Z,3.90
2018-01-26T05:23:42.607Z,3.50
2018-01-26T05:26:09.287Z,3.50
2018-01-26T05:28:35.997Z,3.70
2018-01-26T05:31:02.799Z,3.83
2018-01-26T05:33:29.557Z,4.10
2018-01-26T05:35:56.253Z,4.10
2018-01-26T05:38:22.938Z,3.90
2018-01-26T05:40:49.640Z,4.07
2018-01-26T05:43:16.350Z,4.03
2018-01-26T05:45:43.051Z,4.07
2018-01-26T05:48:09.797Z,4.60
2018-01-26T05:50:36.524Z,4.70
2018-01-26T05:53:03.237Z,4.70
2018-01-26T05:55:29.943Z,4.67
2018-01-26T05:57:56.679Z,4.67
2018-01-26T06:00:23.397Z,4.50
2018-01-26T06:02:50.446Z,4.30
2018-01-26T06:05:17.189Z,4.50
2018-01-26T06:07:43.868Z,4.20
2018-01-26T06:10:10.666Z,4.43
2018-01-26T06:12:37.460Z,6.70
2018-01-26T06:15:04.200Z,4.97
2018-01-26T06:17:31.005Z,4.10
2018-01-26T06:19:57.703Z,3.97
2018-01-26T06:22:24.460Z,4.50
2018-01-26T06:24:51.224Z,4.43
2018-01-26T06:27:17.948Z,4.23
2018-01-26T06:29:44.955Z,4.30
2018-01-26T06:32:11.682Z,4.03
2018-01-26T06:34:38.353Z,3.70
2018-01-26T06:37:05.123Z,3.53
2018-01-26T06:39:31.823Z,3.60
2018-01-26T06:41:58.544Z,3.17
2018-01-26T06:44:25.258Z,3.20
2018-01-26T06:46:52.213Z,3.63
2018-01-26T06:49:18.923Z,4.07
2018-01-26T06:51:45.617Z,4.00
2018-01-26T06:54:12.342Z,4.43
2018-01-26T06:56:39.097Z,4.80
2018-01-26T06:59:05.808Z,4.10
2018-01-26T07:01:32.634Z,4.90
2018-01-26T07:03:59.343Z,5.00
2018-01-26T07:06:26.046Z,4.90
2018-01-26T07:08:52.750Z,5.10
2018-01-26T07:11:19.469Z,5.87
2018-01-26T07:13:46.169Z,5.27
2018-01-26T07:16:12.904Z,5.00
2018-01-26T07:18:40.574Z,4.17
2018-01-26T07:21:07.561Z,4.33
2018-01-26T07:23:34.334Z,5.13
2018-01-26T07:26:01.309Z,5.50
2018-01-26T07:28:28.002Z,5.90
2018-01-26T07:30:54.987Z,6.00
2018-01-26T07:33:21.693Z,4.20
2018-01-26T07:35:48.493Z,3.90
2018-01-26T07:38:15.405Z,2.40
2018-01-26T07:40:42.181Z,2.77
2018-01-26T07:43:09.017Z,2.17
2018-01-26T07:45:35.772Z,1.67
2018-01-26T07:48:02.474Z,1.70
2018-01-26T07:50:29.337Z,1.87
2018-01-26T07:52:56.053Z,1.90
2018-01-26T07:55:22.778Z,1.50
2018-01-26T07:57:49.479Z,1.13
2018-01-26T08:00:16.494Z,0.90
2018-01-26T08:02:43.226Z,0.87
2018-01-26T08:05:10.026Z,1.00
2018-01-26T08:07:36.725Z,0.90
2018-01-26T08:10:03.469Z,1.07
2018-01-26T08:12:30.154Z,1.60
2018-01-26T08:14:56.850Z,0.90
2018-01-26T08:17:23.573Z,0.70
2018-01-26T08:19:50.284Z,1.10
2018-01-26T08:22:16.998Z,1.10
2018-01-26T08:24:43.689Z,1.20
2018-01-26T08:27:10.482Z,1.13
2018-01-26T08:29:37.156Z,0.80
2018-01-26T08:32:03.873Z,1.00
2018-01-26T08:34:30.579Z,1.20
2018-01-26T08:36:57.297Z,0.70
2018-01-26T08:39:23.988Z,1.43
2018-01-26T08:41:50.682Z,1.23
2018-01-26T08:44:17.497Z,1.60
2018-01-26T08:46:44.192Z,1.67
2018-01-26T08:49:11.862Z,2.13
2018-01-26T08:51:38.538Z,1.87
2018-01-26T08:54:05.248Z,2.13
2018-01-26T08:56:31.957Z,2.33
2018-01-26T08:58:58.646Z,2.00
2018-01-26T09:01:25.393Z,1.90
2018-01-26T09:03:52.085Z,2.30
2018-01-26T09:06:18.814Z,2.13
2018-01-26T09:08:45.537Z,2.83
2018-01-26T09:11:12.282Z,2.20
2018-01-26T09:13:39.125Z,1.97
2018-01-26T09:16:05.899Z,2.97
2018-01-26T09:18:32.574Z,2.23
2018-01-26T09:20:59.365Z,2.60
2018-01-26T09:23:26.062Z,2.50
2018-01-26T09:25:52.833Z,2.70
2018-01-26T09:28:19.546Z,3.20
2018-01-26T09:30:46.412Z,2.90
2018-01-26T09:33:13.140Z,3.10
2018-01-26T09:35:39.806Z,2.43
2018-01-26T09:38:06.501Z,2.80
2018-01-26T09:40:33.239Z,2.83
2018-01-26T09:42:59.944Z,2.83
2018-01-26T09:45:26.691Z,2.83
2018-01-26T09:47:53.398Z,3.10
2018-01-26T09:50:20.082Z,2.80
2018-01-26T09:52:46.798Z,2.50
2018-01-26T09:55:13.493Z,3.13
2018-01-26T09:57:40.856Z,2.20
2018-01-26T10:00:07.585Z,2.50
2018-01-26T10:02:34.361Z,2.43
2018-01-26T10:05:01.115Z,3.60
2018-01-26T10:07:27.866Z,2.50
2018-01-26T10:09:55.441Z,2.90
2018-01-26T10:12:22.174Z,2.83
2018-01-26T10:14:48.847Z,2.60
2018-01-26T10:17:15.579Z,3.20
2018-01-26T10:19:42.283Z,3.60
2018-01-26T10:22:08.972Z,3.27
2018-01-26T10:24:35.740Z,3.07
2018-01-26T10:27:02.557Z,3.20
2018-01-26T10:29:29.274Z,3.53
2018-01-26T10:31:56.051Z,3.03
2018-01-26T10:34:22.753Z,4.00
2018-01-26T10:36:49.458Z,4.47
2018-01-26T10:39:16.335Z,4.03
2018-01-26T10:41:43.050Z,4.50
2018-01-26T10:44:09.761Z,4.10
2018-01-26T10:46:36.455Z,4.03
2018-01-26T10:49:03.305Z,4.17
2018-01-26T10:51:30.154Z,3.90
2018-01-26T10:53:57.471Z,4.00
2018-01-26T10:56:24.273Z,3.87
2018-01-26T10:58:50.945Z,3.50
2018-01-26T11:01:17.679Z,3.43
2018-01-26T11:03:44.487Z,4.10
2018-01-26T11:06:11.158Z,3.57
2018-01-26T11:08:37.941Z,3.87
2018-01-26T11:11:04.627Z,3.60
2018-01-26T11:13:31.314Z,3.93
2018-01-26T11:15:58.065Z,3.77
2018-01-26T11:18:24.814Z,3.17
2018-01-26T11:20:51.520Z,3.23
2018-01-26T11:23:18.267Z,3.73
2018-01-26T11:25:44.954Z,3.77
2018-01-26T11:28:11.672Z,4.77
2018-01-26T11:30:38.418Z,4.70
2018-01-26T11:33:05.127Z,4.20
2018-01-26T11:35:31.815Z,3.53
2018-01-26T11:37:58.532Z,3.10
2018-01-26T11:40:25.460Z,4.00
2018-01-26T11:42:52.153Z,3.80
2018-01-26T11:45:18.898Z,3.50
2018-01-26T11:47:45.713Z,4.40
2018-01-26T11:50:12.411Z,3.90
2018-01-26T11:52:39.245Z,3.57
2018-01-26T11:55:06.017Z,3.67
2018-01-26T11:57:32.702Z,3.53
2018-01-26T11:59:59.402Z,3.33
2018-01-26T12:02:26.253Z,4.57
2018-01-26T12:04:52.932Z,4.30
2018-01-26T12:07:19.627Z,4.23
2018-01-26T12:09:46.345Z,3.70
2018-01-26T12:12:13.067Z,3.87
2018-01-26T12:14:39.784Z,3.97
2018-01-26T12:17:06.521Z,4.03
2018-01-26T12:19:33.250Z,3.80
2018-01-26T12:22:00.019Z,3.57
2018-01-26T12:24:26.829Z,4.40
2018-01-26T12:26:53.635Z,3.67
2018-01-26T12:29:20.395Z,3.73
2018-01-26T12:31:47.090Z,3.47
2018-01-26T12:34:13.789Z,4.40
2018-01-26T12:36:40.499Z,4.60
2018-01-26T12:39:07.276Z,5.63
2018-01-26T12:41:33.976Z,5.60
2018-01-26T12:44:00.695Z,3.80
2018-01-26T12:46:27.425Z,3.60
2018-01-26T12:48:54.117Z,4.10
2018-01-26T12:51:20.796Z,3.70
2018-01-26T12:53:47.543Z,4.13
2018-01-26T12:56:14.243Z,3.40
2018-01-26T12:58:41.111Z,4.10
2018-01-26T13:01:07.790Z,3.60
2018-01-26T13:03:34.536Z,3.33
2018-01-26T13:06:01.244Z,3.27
2018-01-26T13:08:27.948Z,4.13
2018-01-26T13:10:54.641Z,3.43
2018-01-26T13:13:21.370Z,4.20
2018-01-26T13:15:48.096Z,3.00
2018-01-26T13:18:14.812Z,3.10
2018-01-26T13:20:41.514Z,3.27
2018-01-26T13:23:08.261Z,3.33
2018-01-26T13:25:35.020Z,3.80
2018-01-26T13:28:01.767Z,5.40
2018-01-26T13:30:28.463Z,4.33
2018-01-26T13:32:55.165Z,3.47
2018-01-26T13:35:21.883Z,3.90
2018-01-26T13:37:48.625Z,2.80
2018-01-26T13:40:15.352Z,3.13
2018-01-26T13:42:42.060Z,2.93
2018-01-26T13:45:08.840Z,3.70
2018-01-26T13:47:35.571Z,3.70
2018-01-26T13:50:02.299Z,4.53
2018-01-26T13:52:28.981Z,3.13
2018-01-26T13:54:55.713Z,4.00
2018-01-26T13:57:22.558Z,4.07
2018-01-26T13:59:49.305Z,4.50
2018-01-26T14:02:16.026Z,4.40
2018-01-26T14:04:42.758Z,4.90
2018-01-26T14:07:09.492Z,4.60
2018-01-26T14:09:36.281Z,5.40
2018-01-26T14:12:03.009Z,4.60
2018-01-26T14:14:29.696Z,4.90
2018-01-26T14:16:56.450Z,5.40
2018-01-26T14:19:23.178Z,5.90
2018-01-26T14:21:49.886Z,4.80
2018-01-26T14:24:16.698Z,5.17
2018-01-26T14:26:43.506Z,5.77
2018-01-26T14:29:10.206Z,5.60
2018-01-26T14:31:37.090Z,4.47
2018-01-26T14:34:03.823Z,4.83
2018-01-26T14:36:30.539Z,4.23
2018-01-26T14:38:57.279Z,4.57
2018-01-26T14:41:23.958Z,4.50
2018-01-26T14:43:50.733Z,4.87
2018-01-26T14:46:17.871Z,4.87
2018-01-26T14:48:44.563Z,4.97
2018-01-26T14:51:11.361Z,4.87
2018-01-26T14:53:38.102Z,4.80
2018-01-26T14:56:04.807Z,4.97
2018-01-26T14:58:31.506Z,4.43
2018-01-26T15:00:58.244Z,5.30
2018-01-26T15:03:25.007Z,5.40
2018-01-26T15:05:51.685Z,5.97
2018-01-26T15:08:18.516Z,4.60
2018-01-26T15:10:45.245Z,4.40
2018-01-26T15:13:12.149Z,4.43
2018-01-26T15:15:39.210Z,4.17
2018-01-26T15:18:05.954Z,4.80
2018-01-26T15:20:32.819Z,4.90
2018-01-26T15:22:59.593Z,3.97
2018-01-26T15:25:26.308Z,4.50
2018-01-26T15:27:53.081Z,4.60
2018-01-26T15:30:19.832Z,4.27
2018-01-26T15:32:46.591Z,3.80
2018-01-26T15:35:13.374Z,4.87
2018-01-26T15:37:40.407Z,4.07
2018-01-26T15:40:07.229Z,4.30
2018-01-26T15:42:34.159Z,3.80
2018-01-26T15:45:01.042Z,4.80
2018-01-26T15:47:27.881Z,4.60
2018-01-26T15:49:54.704Z,4.17
2018-01-26T15:52:21.524Z,5.30
2018-01-26T15:54:48.226Z,4.60
2018-01-26T15:57:14.968Z,5.17
2018-01-26T15:59:41.665Z,4.97
2018-01-26T16:02:08.781Z,5.57
2018-01-26T16:04:35.526Z,5.40
2018-01-26T16:07:02.283Z,5.50
2018-01-26T16:09:29.007Z,5.43
2018-01-26T16:11:55.768Z,5.87
2018-01-26T16:14:23.132Z,6.13
2018-01-26T16:16:49.883Z,5.80
2018-01-26T16:19:16.571Z,5.47
2018-01-26T16:21:43.455Z,6.33
2018-01-26T16:24:10.175Z,6.53
2018-01-26T16:26:36.918Z,6.37
2018-01-26T16:29:03.616Z,6.60
2018-01-26T16:31:30.291Z,7.10
2018-01-26T16:33:56.987Z,7.10
2018-01-26T16:36:23.720Z,7.63
2018-01-26T16:38:50.439Z,7.10
2018-01-26T16:41:17.295Z,7.10
2018-01-26T16:43:44.024Z,7.87
2018-01-26T16:46:10.752Z,7.10
2018-01-26T16:48:37.469Z,7.07
2018-01-26T16:51:04.190Z,7.97
2018-01-26T16:53:30.964Z,6.90
2018-01-26T16:55:57.655Z,6.10
2018-01-26T16:58:24.415Z,6.53
2018-01-26T17:00:51.172Z,6.30
2018-01-26T17:03:17.910Z,5.83
2018-01-26T17:05:44.640Z,6.50
2018-01-26T17:08:11.316Z,6.20
2018-01-26T17:10:38.035Z,6.83
2018-01-26T17:13:04.790Z,6.67
2018-01-26T17:15:31.803Z,7.00
2018-01-26T17:17:58.500Z,7.10
2018-01-26T17:20:25.254Z,7.60
2018-01-26T17:22:52.000Z,7.20
2018-01-26T17:25:18.730Z,6.70
2018-01-26T17:27:45.483Z,6.80
2018-01-26T17:30:12.178Z,6.80
2018-01-26T17:32:38.908Z,6.83
2018-01-26T17:35:05.646Z,7.47
2018-01-26T17:37:32.356Z,8.37
2018-01-26T17:39:59.107Z,8.53
2018-01-26T17:42:25.844Z,8.37
2018-01-26T17:44:52.669Z,9.37
2018-01-26T17:47:19.407Z,8.67
2018-01-26T17:49:46.245Z,8.87
2018-01-26T17:52:13.550Z,8.57
2018-01-26T17:54:40.238Z,8.07
2018-01-26T17:57:06.993Z,8.80
2018-01-26T17:59:33.778Z,9.17
2018-01-26T18:02:00.728Z,7.80
2018-01-26T18:04:27.642Z,9.40
2018-01-26T18:06:54.513Z,8.27
2018-01-26T18:09:21.232Z,7.83
2018-01-26T18:11:48.134Z,8.87
2018-01-26T18:14:14.863Z,9.00
2018-01-26T18:16:41.605Z,9.83
2018-01-26T18:19:08.557Z,11.20
2018-01-26T18:21:35.261Z,13.30
2018-01-26T18:24:02.037Z,14.07
2018-01-26T18:26:28.757Z,13.50
2018-01-26T18:28:55.753Z,15.40
2018-01-26T18:31:22.528Z,16.07
2018-01-26T18:33:49.434Z,15.87
2018-01-26T18:36:16.254Z,15.20
2018-01-26T18:38:43.003Z,13.60
2018-01-26T18:41:09.764Z,13.17
2018-01-26T18:43:36.460Z,13.73
2018-01-26T18:46:03.562Z,12.20
2018-01-26T18:48:30.318Z,13.40
2018-01-26T18:50:57.080Z,13.90
2018-01-26T18:53:23.806Z,13.93
2018-01-26T18:55:50.547Z,14.57
2018-01-26T18:58:17.290Z,14.53
2018-01-26T19:00:44.000Z,15.17
2018-01-26T19:03:10.899Z,14.77
2018-01-26T19:05:37.636Z,16.00
2018-01-26T19:08:04.414Z,15.67
2018-01-26T19:10:31.233Z,15.83
2018-01-26T19:12:58.070Z,16.77
2018-01-26T19:15:24.888Z,15.03
2018-01-26T19:17:51.664Z,16.23
2018-01-26T19:20:18.531Z,17.07
2018-01-26T19:22:45.214Z,18.53
2018-01-26T19:25:11.940Z,17.70
2018-01-26T19:27:38.697Z,20.20
2018-01-26T19:30:05.554Z,18.50
2018-01-26T19:32:32.368Z,17.33
2018-01-26T19:34:59.108Z,18.80
2018-01-26T19:37:25.830Z,18.70
2018-01-26T19:39:52.587Z,17.83
2018-01-26T19:42:19.347Z,18.40
2018-01-26T19:44:46.108Z,19.97
2018-01-26T19:47:12.843Z,19.87
2018-01-26T19:49:39.549Z,20.87
2018-01-26T19:52:06.269Z,20.10
2018-01-26T19:54:33.044Z,20.93
2018-01-26T19:56:59.740Z,20.20
2018-01-26T19:59:26.510Z,21.60
2018-01-26T20:01:53.401Z,22.17
2018-01-26T20:04:21.640Z,18.40
2018-01-26T20:07:00.154Z,18.90
2018-01-26T20:09:26.912Z,19.90
2018-01-26T20:11:59.269Z,19.70
2018-01-26T20:14:25.979Z,20.13
2018-01-26T20:16:52.744Z,20.83
2018-01-26T20:19:19.478Z,20.13
2018-01-26T20:21:46.198Z,20.10
2018-01-26T20:24:12.942Z,20.00
2018-01-26T20:26:39.681Z,19.20
2018-01-26T20:29:06.683Z,20.80
2018-01-26T20:31:33.375Z,21.30
2018-01-26T20:34:00.094Z,20.27
2018-01-26T20:36:26.835Z,19.07
2018-01-26T20:38:53.550Z,21.43
2018-01-26T20:41:20.282Z,21.50
2018-01-26T20:43:46.983Z,21.17
2018-01-26T20:46:13.737Z,20.20
2018-01-26T20:48:40.462Z,20.90
2018-01-26T20:51:07.191Z,22.30
2018-01-26T20:53:33.930Z,22.20
2018-01-26T20:56:00.650Z,21.90
2018-01-26T20:58:27.370Z,21.37
2018-01-26T21:00:54.180Z,22.10
2018-01-26T21:03:20.940Z,21.23
2018-01-26T21:05:47.636Z,20.90
2018-01-26T21:08:14.373Z,22.63
2018-01-26T21:10:41.104Z,20.90
2018-01-26T21:13:08.292Z,20.70
2018-01-26T21:15:35.077Z,20.53
2018-01-26T21:18:01.844Z,21.60
2018-01-26T21:20:28.540Z,20.00
2018-01-26T21:22:57.053Z,21.20
2018-01-26T21:25:23.814Z,20.23
2018-01-26T21:27:50.542Z,20.13
2018-01-26T21:30:17.290Z,19.90
2018-01-26T21:32:44.016Z,19.03
2018-01-26T21:35:10.737Z,18.07
2018-01-26T21:37:37.429Z,21.10
2018-01-26T21:40:04.173Z,21.30
2018-01-26T21:42:30.892Z,21.13
2018-01-26T21:44:57.653Z,20.30
2018-01-26T21:47:24.394Z,19.67
2018-01-26T21:49:51.177Z,18.43
2018-01-26T21:52:17.883Z,18.90
2018-01-26T21:54:44.634Z,18.90
2018-01-26T21:57:11.446Z,17.97
2018-01-26T21:59:38.198Z,16.47
2018-01-26T22:02:05.135Z,16.57
2018-01-26T22:04:37.621Z,16.37
2018-01-26T22:07:10.189Z,17.47
2018-01-26T22:09:36.892Z,17.27
2018-01-26T22:12:03.598Z,16.53
2018-01-26T22:14:30.302Z,15.60
2018-01-26T22:16:57.039Z,16.43
2018-01-26T22:19:23.785Z,14.77
2018-01-26T22:21:50.542Z,15.40
2018-01-26T22:24:17.290Z,15.40
2018-01-26T22:26:44.045Z,15.00
2018-01-26T22:29:10.734Z,14.63
2018-01-26T22:31:37.467Z,16.40
2018-01-26T22:34:04.473Z,15.13
2018-01-26T22:36:31.180Z,14.43
2018-01-26T22:38:57.943Z,14.50
2018-01-26T22:41:24.876Z,14.97
2018-01-26T22:43:51.585Z,14.87
2018-01-26T22:46:18.290Z,15.57
2018-01-26T22:48:44.989Z,14.70
2018-01-26T22:51:12.583Z,14.37
2018-01-26T22:53:39.273Z,14.87
2018-01-26T22:56:05.992Z,14.17
2018-01-26T22:58:32.682Z,15.73
2018-01-26T23:00:59.370Z,16.90
2018-01-26T23:03:26.078Z,17.37
2018-01-26T23:05:52.798Z,18.23
2018-01-26T23:08:19.681Z,18.57
2018-01-26T23:10:46.380Z,17.83
2018-01-26T23:13:13.246Z,19.10
2018-01-26T23:15:40.812Z,18.33
2018-01-26T23:18:07.617Z,18.73
2018-01-26T23:20:34.654Z,21.60
2018-01-26T23:23:01.397Z,21.33
2018-01-26T23:25:28.355Z,21.20
2018-01-26T23:27:55.040Z,21.40
2018-01-26T23:30:21.774Z,21.37
2018-01-26T23:32:49.548Z,19.73
2018-01-26T23:35:16.473Z,23.57
2018-01-26T23:37:43.008Z,24.57
2018-01-26T23:40:10.059Z,23.47
2018-01-26T23:42:36.774Z,22.60
2018-01-26T23:45:03.890Z,21.90
2018-01-26T23:47:30.831Z,23.50
2018-01-26T23:49:57.991Z,21.50
2018-01-26T23:52:24.724Z,20.57
2018-01-26T23:54:51.409Z,22.17
2018-01-26T23:57:18.149Z,23.17
2018-01-26T23:59:44.877Z,22.50
